createdAt,value
2024-04-23T00:00:06.632Z,0.00
2024-04-23T00:01:06.654Z,0.00
2024-04-23T00:02:06.630Z,0.00
2024-04-23T00:03:06.630Z,0.00
2024-04-23T00:04:06.628Z,0.00
2024-04-23T00:05:06.662Z,0.00
2024-04-23T00:06:06.593Z,0.00
2024-04-23T00:07:06.583Z,0.00
2024-04-23T00:08:06.710Z,0.00
2024-04-23T00:09:06.567Z,0.00
2024-04-23T00:10:06.567Z,0.00
2024-04-23T00:11:06.714Z,0.00
2024-04-23T00:12:06.567Z,0.00
2024-04-23T00:13:06.551Z,0.00
2024-04-23T00:14:06.544Z,0.00
2024-04-23T00:15:06.542Z,0.00
2024-04-23T00:16:06.538Z,0.00
2024-04-23T00:17:06.608Z,0.00
2024-04-23T00:18:06.697Z,0.00
2024-04-23T00:19:06.548Z,0.00
2024-04-23T00:20:06.567Z,0.00
2024-04-23T00:21:06.513Z,0.00
2024-04-23T00:22:06.507Z,0.00
2024-04-23T00:23:06.497Z,0.00
2024-04-23T00:24:06.511Z,0.00
2024-04-23T00:25:06.495Z,0.00
2024-04-23T00:26:06.491Z,0.00
2024-04-23T00:27:06.483Z,0.00
2024-04-23T00:28:06.479Z,0.00
2024-04-23T00:29:06.466Z,0.00
2024-04-23T00:30:06.509Z,0.00
2024-04-23T00:31:06.466Z,0.00
2024-04-23T00:32:06.579Z,0.00
2024-04-23T00:33:06.530Z,0.00
2024-04-23T00:34:06.443Z,0.00
2024-04-23T00:35:06.529Z,0.00
2024-04-23T00:36:06.434Z,0.00
2024-04-23T00:37:06.444Z,0.00
2024-04-23T00:38:06.419Z,0.00
2024-04-23T00:39:06.418Z,0.00
2024-04-23T00:40:06.448Z,0.00
2024-04-23T00:41:06.495Z,0.00
2024-04-23T00:42:06.414Z,0.00
2024-04-23T00:43:06.398Z,0.00
2024-04-23T00:44:06.396Z,0.00
2024-04-23T00:45:06.377Z,0.00
2024-04-23T00:46:06.382Z,0.00
2024-04-23T00:47:06.400Z,0.00
2024-04-23T00:48:06.417Z,0.00
2024-04-23T00:49:06.363Z,0.00
2024-04-23T00:50:06.427Z,0.00
2024-04-23T00:51:06.366Z,0.00
2024-04-23T00:52:06.366Z,0.00
2024-04-23T00:53:06.349Z,0.00
2024-04-23T00:54:06.352Z,0.00
2024-04-23T00:55:06.326Z,0.00
2024-04-23T00:56:06.375Z,0.00
2024-04-23T00:57:06.321Z,0.00
2024-04-23T00:58:06.330Z,0.00
2024-04-23T00:59:06.400Z,0.00
2024-04-23T01:00:06.315Z,0.00
2024-04-23T01:01:06.358Z,0.00
2024-04-23T01:02:06.392Z,0.00
2024-04-23T01:03:06.414Z,0.00
2024-04-23T01:04:06.281Z,0.00
2024-04-23T01:05:06.336Z,0.00
2024-04-23T01:06:06.275Z,0.00
2024-04-23T01:07:06.265Z,0.00
2024-04-23T01:08:06.290Z,0.00
2024-04-23T01:09:06.295Z,0.00
2024-04-23T01:10:06.272Z,0.00
2024-04-23T01:11:06.358Z,0.00
2024-04-23T01:12:06.266Z,0.00
2024-04-23T01:13:06.237Z,0.00
2024-04-23T01:14:06.360Z,0.00
2024-04-23T01:15:06.222Z,0.00
2024-04-23T01:16:06.227Z,0.00
2024-04-23T01:17:06.426Z,0.00
2024-04-23T01:18:06.314Z,0.00
2024-04-23T01:19:06.196Z,0.00
2024-04-23T01:20:06.279Z,0.00
2024-04-23T01:21:06.189Z,0.00
2024-04-23T01:22:06.209Z,0.00
2024-04-23T01:23:06.275Z,0.00
2024-04-23T01:24:06.177Z,0.00
2024-04-23T01:25:06.170Z,0.00
2024-04-23T01:26:06.246Z,0.00
2024-04-23T01:27:06.191Z,0.00
2024-04-23T01:28:06.159Z,0.00
2024-04-23T01:29:06.156Z,0.00
2024-04-23T01:30:06.142Z,0.00
2024-04-23T01:31:06.145Z,0.00
2024-04-23T01:32:06.135Z,0.00
2024-04-23T01:33:06.141Z,0.00
2024-04-23T01:34:06.129Z,0.00
2024-04-23T01:35:06.108Z,0.00
2024-04-23T01:36:06.118Z,0.00
2024-04-23T01:37:06.112Z,0.00
2024-04-23T01:38:06.179Z,0.00
2024-04-23T01:39:06.086Z,0.00
2024-04-23T01:40:06.074Z,0.00
2024-04-23T01:41:06.093Z,0.00
2024-04-23T01:42:06.078Z,0.00
2024-04-23T01:43:06.070Z,0.00
2024-04-23T01:44:06.069Z,0.00
2024-04-23T01:45:06.050Z,0.00
2024-04-23T01:46:06.045Z,0.00
2024-04-23T01:47:06.179Z,0.00
2024-04-23T01:48:06.358Z,0.00
2024-04-23T01:49:06.057Z,0.00
2024-04-23T01:50:06.046Z,0.00
2024-04-23T01:51:06.044Z,0.00
2024-04-23T01:52:06.015Z,0.00
2024-04-23T01:53:06.091Z,0.00
2024-04-23T01:54:06.008Z,0.00
2024-04-23T01:55:05.995Z,0.00
2024-04-23T01:56:06.076Z,0.00
2024-04-23T01:57:05.983Z,0.00
2024-04-23T01:58:05.981Z,0.00
2024-04-23T01:59:05.974Z,0.00
2024-04-23T02:00:05.992Z,0.00
2024-04-23T02:01:05.992Z,0.00
2024-04-23T02:02:06.021Z,0.00
2024-04-23T02:03:06.129Z,0.00
2024-04-23T02:04:05.954Z,0.00
2024-04-23T02:05:05.935Z,0.00
2024-04-23T02:06:05.934Z,0.00
2024-04-23T02:07:05.938Z,0.00
2024-04-23T02:08:05.962Z,0.00
2024-04-23T02:09:05.910Z,0.00
2024-04-23T02:10:05.905Z,0.00
2024-04-23T02:11:06.069Z,0.00
2024-04-23T02:12:05.905Z,0.00
2024-04-23T02:13:05.922Z,0.00
2024-04-23T02:14:05.935Z,0.00
2024-04-23T02:15:05.896Z,0.00
2024-04-23T02:16:05.960Z,0.00
2024-04-23T02:17:05.952Z,0.00
2024-04-23T02:18:06.015Z,0.00
2024-04-23T02:19:05.856Z,0.00
2024-04-23T02:20:05.884Z,0.00
2024-04-23T02:21:05.848Z,0.00
2024-04-23T02:22:05.841Z,0.00
2024-04-23T02:23:05.862Z,0.00
2024-04-23T02:24:05.844Z,0.00
2024-04-23T02:25:05.824Z,0.00
2024-04-23T02:26:05.832Z,0.00
2024-04-23T02:27:05.813Z,0.00
2024-04-23T02:28:05.803Z,0.00
2024-04-23T02:29:05.804Z,0.00
2024-04-23T02:30:05.813Z,0.00
2024-04-23T02:31:05.794Z,0.00
2024-04-23T02:32:05.807Z,0.00
2024-04-23T02:33:05.891Z,0.00
2024-04-23T02:34:05.772Z,0.00
2024-04-23T02:35:05.781Z,0.00
2024-04-23T02:36:05.774Z,0.00
2024-04-23T02:37:05.752Z,0.00
2024-04-23T02:38:05.784Z,0.00
2024-04-23T02:39:05.748Z,0.00
2024-04-23T02:40:07.100Z,0.00
2024-04-23T02:41:05.762Z,0.00
2024-04-23T02:42:05.722Z,0.00
2024-04-23T02:43:05.723Z,0.00
2024-04-23T02:44:05.747Z,0.00
2024-04-23T02:45:05.702Z,0.00
2024-04-23T02:46:05.714Z,0.00
2024-04-23T02:47:05.755Z,0.00
2024-04-23T02:48:05.841Z,0.00
2024-04-23T02:49:05.698Z,0.00
2024-04-23T02:50:05.698Z,0.00
2024-04-23T02:51:05.687Z,0.00
2024-04-23T02:52:05.675Z,0.00
2024-04-23T02:53:05.741Z,0.00
2024-04-23T02:54:05.664Z,0.00
2024-04-23T02:55:05.663Z,0.00
2024-04-23T02:56:05.671Z,0.00
2024-04-23T02:57:05.654Z,0.00
2024-04-23T02:58:05.643Z,0.00
2024-04-23T02:59:05.654Z,0.00
2024-04-23T03:00:05.619Z,0.00
2024-04-23T03:01:05.696Z,0.00
2024-04-23T03:02:05.668Z,0.00
2024-04-23T03:03:05.770Z,0.00
2024-04-23T03:04:05.631Z,0.00
2024-04-23T03:05:05.609Z,0.00
2024-04-23T03:06:05.594Z,0.00
2024-04-23T03:07:05.614Z,0.00
2024-04-23T03:08:05.634Z,0.00
2024-04-23T03:09:05.577Z,0.00
2024-04-23T03:10:05.571Z,0.00
2024-04-23T03:11:05.704Z,0.00
2024-04-23T03:12:05.560Z,0.00
2024-04-23T03:13:05.554Z,0.00
2024-04-23T03:14:05.602Z,0.00
2024-04-23T03:15:05.535Z,0.00
2024-04-23T03:16:08.544Z,0.00
2024-04-23T03:17:05.549Z,0.00
2024-04-23T03:18:05.608Z,0.00
2024-04-23T03:19:05.515Z,0.00
2024-04-23T03:20:05.636Z,0.00
2024-04-23T03:21:05.502Z,0.00
2024-04-23T03:22:05.555Z,0.00
2024-04-23T03:23:05.513Z,0.00
2024-04-23T03:24:05.486Z,0.00
2024-04-23T03:25:05.505Z,0.00
2024-04-23T03:26:05.604Z,0.00
2024-04-23T03:27:05.490Z,0.00
2024-04-23T03:28:05.477Z,0.00
2024-04-23T03:29:05.496Z,0.00
2024-04-23T03:30:05.473Z,0.00
2024-04-23T03:31:05.449Z,0.00
2024-04-23T03:32:05.728Z,0.00
2024-04-23T03:33:05.492Z,0.00
2024-04-23T03:34:05.442Z,0.00
2024-04-23T03:35:05.473Z,0.00
2024-04-23T03:36:05.431Z,0.00
2024-04-23T03:37:05.426Z,0.00
2024-04-23T03:38:05.458Z,0.00
2024-04-23T03:39:05.401Z,0.00
2024-04-23T03:40:05.394Z,0.00
2024-04-23T03:41:05.435Z,0.00
2024-04-23T03:42:05.402Z,0.00
2024-04-23T03:43:05.380Z,0.00
2024-04-23T03:44:05.421Z,0.00
2024-04-23T03:45:05.359Z,0.00
2024-04-23T03:46:05.375Z,0.00
2024-04-23T03:47:05.438Z,0.00
2024-04-23T03:48:05.433Z,0.00
2024-04-23T03:49:05.346Z,0.00
2024-04-23T03:50:05.402Z,5.63
2024-04-23T03:51:05.333Z,5.63
2024-04-23T03:52:05.372Z,5.63
2024-04-23T03:53:05.387Z,5.63
2024-04-23T03:54:05.318Z,5.63
2024-04-23T03:55:05.310Z,5.63
2024-04-23T03:56:05.336Z,5.63
2024-04-23T03:57:05.298Z,5.63
2024-04-23T03:58:05.305Z,5.63
2024-04-23T03:59:05.371Z,11.25
2024-04-23T04:00:05.279Z,11.25
2024-04-23T04:01:05.306Z,11.25
2024-04-23T04:02:05.332Z,11.25
2024-04-23T04:03:05.273Z,11.25
2024-04-23T04:04:05.258Z,11.25
2024-04-23T04:05:05.297Z,11.25
2024-04-23T04:06:05.282Z,11.25
2024-04-23T04:07:05.240Z,16.88
2024-04-23T04:08:05.269Z,16.88
2024-04-23T04:09:05.238Z,16.88
2024-04-23T04:10:05.212Z,16.88
2024-04-23T04:11:05.371Z,16.88
2024-04-23T04:12:05.205Z,16.88
2024-04-23T04:13:16.984Z,16.88
2024-04-23T04:14:05.307Z,22.50
2024-04-23T04:15:05.192Z,22.50
2024-04-23T04:16:05.174Z,22.50
2024-04-23T04:17:05.197Z,22.50
2024-04-23T04:18:05.303Z,22.50
2024-04-23T04:19:05.166Z,22.50
2024-04-23T04:20:05.268Z,22.50
2024-04-23T04:21:05.148Z,28.13
2024-04-23T04:22:05.137Z,28.13
2024-04-23T04:23:05.388Z,28.13
2024-04-23T04:24:05.139Z,28.13
2024-04-23T04:25:05.139Z,28.13
2024-04-23T04:26:05.205Z,28.13
2024-04-23T04:27:05.112Z,33.75
2024-04-23T04:28:05.626Z,33.75
2024-04-23T04:29:05.194Z,33.75
2024-04-23T04:30:05.100Z,33.75
2024-04-23T04:31:05.098Z,33.75
2024-04-23T04:32:05.133Z,33.75
2024-04-23T04:33:05.235Z,39.38
2024-04-23T04:34:05.075Z,39.38
2024-04-23T04:35:05.144Z,39.38
2024-04-23T04:36:05.059Z,39.38
2024-04-23T04:37:05.053Z,39.38
2024-04-23T04:38:05.075Z,39.38
2024-04-23T04:39:05.050Z,39.38
2024-04-23T04:40:05.062Z,45.00
2024-04-23T04:41:05.081Z,45.00
2024-04-23T04:42:05.026Z,45.00
2024-04-23T04:43:05.033Z,45.00
2024-04-23T04:44:05.082Z,45.00
2024-04-23T04:45:05.011Z,45.00
2024-04-23T04:46:05.005Z,45.00
2024-04-23T04:47:07.248Z,50.63
2024-04-23T04:48:05.129Z,50.63
2024-04-23T04:49:04.985Z,50.63
2024-04-23T04:50:05.069Z,50.63
2024-04-23T04:51:04.974Z,50.63
2024-04-23T04:52:04.959Z,50.63
2024-04-23T04:53:04.978Z,56.25
2024-04-23T04:54:04.955Z,56.25
2024-04-23T04:55:04.952Z,56.25
2024-04-23T04:56:05.003Z,56.25
2024-04-23T04:57:04.930Z,56.25
2024-04-23T04:58:04.933Z,56.25
2024-04-23T04:59:04.956Z,61.88
2024-04-23T05:00:04.955Z,61.88
2024-04-23T05:01:04.947Z,61.88
2024-04-23T05:02:04.950Z,61.88
2024-04-23T05:03:04.909Z,61.88
2024-04-23T05:04:04.911Z,61.88
2024-04-23T05:05:04.921Z,67.50
2024-04-23T05:06:04.886Z,67.50
2024-04-23T05:07:04.880Z,67.50
2024-04-23T05:08:04.895Z,67.50
2024-04-23T05:09:04.887Z,67.50
2024-04-23T05:10:04.870Z,67.50
2024-04-23T05:11:04.958Z,73.13
2024-04-23T05:12:04.896Z,73.13
2024-04-23T05:13:04.852Z,73.13
2024-04-23T05:14:04.868Z,73.13
2024-04-23T05:15:04.836Z,73.13
2024-04-23T05:16:04.836Z,78.75
2024-04-23T05:17:04.940Z,78.75
2024-04-23T05:18:04.885Z,78.75
2024-04-23T05:19:04.825Z,78.75
2024-04-23T05:20:04.943Z,78.75
2024-04-23T05:21:04.809Z,84.38
2024-04-23T05:22:04.798Z,84.38
2024-04-23T05:23:04.827Z,84.38
2024-04-23T05:24:04.782Z,84.38
2024-04-23T05:25:04.778Z,90.00
2024-04-23T05:26:04.808Z,90.00
2024-04-23T05:27:04.763Z,90.00
2024-04-23T05:28:04.775Z,90.00
2024-04-23T05:29:04.818Z,90.00
2024-04-23T05:30:04.745Z,95.63
2024-04-23T05:31:04.752Z,95.63
2024-04-23T05:32:04.788Z,101.25
2024-04-23T05:33:04.794Z,101.25
2024-04-23T05:34:04.722Z,101.25
2024-04-23T05:35:04.846Z,101.25
2024-04-23T05:36:04.723Z,106.88
2024-04-23T05:37:04.706Z,106.88
2024-04-23T05:38:04.865Z,112.50
2024-04-23T05:39:04.695Z,151.88
2024-04-23T05:40:04.689Z,185.63
2024-04-23T05:41:04.859Z,202.50
2024-04-23T05:42:04.686Z,202.50
2024-04-23T05:43:04.681Z,202.50
2024-04-23T05:44:04.722Z,196.88
2024-04-23T05:45:04.665Z,185.63
2024-04-23T05:46:04.657Z,174.38
2024-04-23T05:47:04.759Z,174.38
2024-04-23T05:48:04.713Z,185.63
2024-04-23T05:49:04.652Z,174.38
2024-04-23T05:50:04.708Z,174.38
2024-04-23T05:51:04.635Z,140.63
2024-04-23T05:52:12.492Z,146.25
2024-04-23T05:53:04.659Z,146.25
2024-04-23T05:54:04.644Z,151.88
2024-04-23T05:55:04.637Z,168.75
2024-04-23T05:56:04.688Z,168.75
2024-04-23T05:57:04.613Z,180.00
2024-04-23T05:58:04.627Z,196.88
2024-04-23T05:59:04.659Z,230.63
2024-04-23T06:00:04.816Z,258.75
2024-04-23T06:01:04.615Z,275.63
2024-04-23T06:02:04.643Z,264.38
2024-04-23T06:03:04.633Z,258.75
2024-04-23T06:04:04.639Z,241.88
2024-04-23T06:05:04.660Z,213.75
2024-04-23T06:06:04.551Z,213.75
2024-04-23T06:07:04.552Z,270.00
2024-04-23T06:08:04.644Z,275.63
2024-04-23T06:09:04.553Z,270.00
2024-04-23T06:10:04.534Z,236.25
2024-04-23T06:11:04.699Z,253.13
2024-04-23T06:12:04.530Z,258.75
2024-04-23T06:13:04.529Z,253.13
2024-04-23T06:14:04.586Z,247.50
2024-04-23T06:16:04.523Z,219.38
2024-04-23T06:17:04.556Z,253.13
2024-04-23T06:18:04.597Z,253.13
2024-04-23T06:19:04.661Z,236.25
2024-04-23T06:20:04.554Z,230.63
2024-04-23T06:21:04.478Z,225.00
2024-04-23T06:22:04.482Z,225.00
2024-04-23T06:23:04.606Z,247.50
2024-04-23T06:24:04.467Z,326.25
2024-04-23T06:25:04.467Z,320.63
2024-04-23T06:26:04.542Z,303.75
2024-04-23T06:27:04.449Z,264.38
2024-04-23T06:28:04.470Z,298.13
2024-04-23T06:29:04.481Z,275.63
2024-04-23T06:30:04.443Z,303.75
2024-04-23T06:31:04.428Z,275.63
2024-04-23T06:32:04.486Z,253.13
2024-04-23T06:33:04.592Z,236.25
2024-04-23T06:34:04.422Z,309.38
2024-04-23T06:35:04.490Z,298.13
2024-04-23T06:36:04.408Z,253.13
2024-04-23T06:37:04.414Z,230.63
2024-04-23T06:38:04.595Z,196.88
2024-04-23T06:39:04.389Z,236.25
2024-04-23T06:40:04.386Z,275.63
2024-04-23T06:41:04.417Z,331.88
2024-04-23T06:42:04.381Z,343.13
2024-04-23T06:43:11.827Z,309.38
2024-04-23T06:44:04.408Z,270.00
2024-04-23T06:45:04.378Z,264.38
2024-04-23T06:46:04.397Z,219.38
2024-04-23T06:47:04.411Z,247.50
2024-04-23T06:48:04.389Z,298.13
2024-04-23T06:49:04.357Z,275.63
2024-04-23T06:50:04.608Z,286.88
2024-04-23T06:51:04.338Z,298.13
2024-04-23T06:52:04.349Z,331.88
2024-04-23T06:53:07.747Z,371.25
2024-04-23T06:54:04.334Z,489.38
2024-04-23T06:55:04.337Z,573.75
2024-04-23T06:56:04.361Z,495.00
2024-04-23T06:57:04.328Z,455.63
2024-04-23T06:58:04.308Z,461.25
2024-04-23T06:59:04.496Z,455.63
2024-04-23T07:00:04.354Z,450.00
2024-04-23T07:01:04.366Z,500.63
2024-04-23T07:02:04.454Z,618.75
2024-04-23T07:03:04.362Z,596.25
2024-04-23T07:04:04.352Z,534.38
2024-04-23T07:05:04.348Z,506.25
2024-04-23T07:06:04.301Z,495.00
2024-04-23T07:07:04.289Z,545.63
2024-04-23T07:08:04.339Z,641.25
2024-04-23T07:09:04.304Z,669.38
2024-04-23T07:10:04.330Z,680.63
2024-04-23T07:11:04.478Z,579.38
2024-04-23T07:12:04.291Z,466.88
2024-04-23T07:13:04.287Z,410.63
2024-04-23T07:14:04.351Z,270.00
2024-04-23T07:15:04.276Z,410.63
2024-04-23T07:16:04.277Z,303.75
2024-04-23T07:17:04.428Z,371.25
2024-04-23T07:18:04.470Z,365.63
2024-04-23T07:19:04.316Z,360.00
2024-04-23T07:20:04.344Z,365.63
2024-04-23T07:21:04.297Z,365.63
2024-04-23T07:22:04.299Z,382.50
2024-04-23T07:23:04.329Z,399.38
2024-04-23T07:24:04.294Z,523.13
2024-04-23T07:25:04.259Z,1080.00
2024-04-23T07:26:04.387Z,1805.63
2024-04-23T07:27:04.259Z,2154.38
2024-04-23T07:28:04.256Z,1800.00
2024-04-23T07:29:04.371Z,1164.38
2024-04-23T07:30:04.297Z,585.00
2024-04-23T07:31:04.244Z,427.50
2024-04-23T07:32:04.324Z,427.50
2024-04-23T07:33:04.405Z,438.75
2024-04-23T07:34:04.270Z,450.00
2024-04-23T07:35:04.339Z,455.63
2024-04-23T07:36:04.240Z,478.13
2024-04-23T07:37:04.242Z,489.38
2024-04-23T07:38:04.298Z,511.88
2024-04-23T07:39:04.241Z,624.38
2024-04-23T07:40:04.233Z,562.50
2024-04-23T07:41:04.443Z,545.63
2024-04-23T07:42:04.238Z,545.63
2024-04-23T07:43:04.281Z,562.50
2024-04-23T07:44:04.303Z,579.38
2024-04-23T07:45:04.223Z,590.63
2024-04-23T07:46:04.229Z,618.75
2024-04-23T07:47:04.303Z,624.38
2024-04-23T07:48:04.430Z,641.25
2024-04-23T07:49:04.216Z,680.63
2024-04-23T07:50:04.447Z,1282.50
2024-04-23T07:51:04.221Z,2941.88
2024-04-23T07:52:04.223Z,3453.75
2024-04-23T07:53:04.285Z,3324.38
2024-04-23T07:54:04.224Z,3223.13
2024-04-23T07:55:04.226Z,3273.75
2024-04-23T07:56:04.322Z,3313.13
2024-04-23T07:57:04.219Z,3211.88
2024-04-23T07:58:04.230Z,3251.25
2024-04-23T07:59:04.363Z,3465.00
2024-04-23T08:00:04.227Z,3802.50
2024-04-23T08:01:04.243Z,3960.00
2024-04-23T08:02:04.249Z,3785.63
2024-04-23T08:03:04.246Z,3639.38
2024-04-23T08:04:04.349Z,3605.63
2024-04-23T08:05:04.315Z,3639.38
2024-04-23T08:06:04.233Z,3780.00
2024-04-23T08:07:04.209Z,3993.75
2024-04-23T08:08:04.278Z,4089.38
2024-04-23T08:09:04.227Z,3971.25
2024-04-23T08:10:04.215Z,3988.13
2024-04-23T08:11:04.767Z,3847.50
2024-04-23T08:12:04.274Z,3926.25
2024-04-23T08:13:04.209Z,3971.25
2024-04-23T08:14:04.374Z,4173.75
2024-04-23T08:15:04.221Z,4314.38
2024-04-23T08:16:04.222Z,4196.25
2024-04-23T08:17:04.330Z,4050.00
2024-04-23T08:18:04.461Z,4016.25
2024-04-23T08:19:04.329Z,3926.25
2024-04-23T08:20:04.269Z,3785.63
2024-04-23T08:21:04.243Z,3819.38
2024-04-23T08:22:04.276Z,3976.88
2024-04-23T08:23:04.370Z,4258.13
2024-04-23T08:24:04.259Z,4336.88
2024-04-23T08:25:04.246Z,4269.38
2024-04-23T08:26:04.308Z,4303.13
2024-04-23T08:27:04.263Z,4376.25
2024-04-23T08:28:04.271Z,4342.50
2024-04-23T08:29:04.323Z,4320.00
2024-04-23T08:30:04.276Z,4438.13
2024-04-23T08:31:04.294Z,4376.25
2024-04-23T08:32:04.417Z,4297.50
2024-04-23T08:33:04.430Z,4275.00
2024-04-23T08:34:04.302Z,4162.50
2024-04-23T08:35:04.529Z,4083.75
2024-04-23T08:36:04.320Z,4201.88
2024-04-23T08:37:04.314Z,4393.13
2024-04-23T08:38:04.406Z,4342.50
2024-04-23T08:39:04.320Z,4410.00
2024-04-23T08:40:04.331Z,4646.25
2024-04-23T08:41:04.390Z,4651.88
2024-04-23T08:42:04.335Z,4567.50
2024-04-23T08:43:05.756Z,4606.88
2024-04-23T08:44:04.468Z,4511.25
2024-04-23T08:45:04.399Z,3453.75
2024-04-23T08:46:04.504Z,1417.50
2024-04-23T08:47:04.618Z,748.13
2024-04-23T08:48:04.524Z,708.75
2024-04-23T08:49:04.389Z,697.50
2024-04-23T08:50:04.556Z,691.88
2024-04-23T08:51:04.537Z,686.25
2024-04-23T08:52:04.467Z,669.38
2024-04-23T08:53:04.615Z,669.38
2024-04-23T08:54:04.415Z,669.38
2024-04-23T08:55:04.450Z,663.75
2024-04-23T08:56:04.618Z,669.38
2024-04-23T08:57:04.445Z,669.38
2024-04-23T08:58:04.432Z,675.00
2024-04-23T08:59:04.521Z,675.00
2024-04-23T09:00:06.506Z,680.63
2024-04-23T09:01:04.515Z,680.63
2024-04-23T09:02:04.522Z,686.25
2024-04-23T09:03:04.549Z,703.13
2024-04-23T09:04:04.496Z,703.13
2024-04-23T09:05:04.657Z,708.75
2024-04-23T09:06:04.486Z,714.38
2024-04-23T09:07:04.583Z,720.00
2024-04-23T09:08:04.515Z,725.63
2024-04-23T09:09:04.486Z,731.25
2024-04-23T09:10:04.806Z,742.50
2024-04-23T09:11:04.585Z,753.75
2024-04-23T09:12:04.600Z,781.88
2024-04-23T09:13:04.516Z,894.38
2024-04-23T09:14:04.714Z,1237.50
2024-04-23T09:15:04.524Z,1833.75
2024-04-23T09:16:04.526Z,2480.63
2024-04-23T09:17:04.615Z,2919.38
2024-04-23T09:18:04.674Z,3217.50
2024-04-23T09:19:04.545Z,3695.63
2024-04-23T09:20:04.615Z,4449.38
2024-04-23T09:21:04.554Z,4983.75
2024-04-23T09:22:06.582Z,4950.00
2024-04-23T09:23:04.717Z,4545.00
2024-04-23T09:24:04.556Z,4275.00
2024-04-23T09:25:04.852Z,4561.88
2024-04-23T09:26:04.624Z,5090.63
2024-04-23T09:27:04.588Z,5343.75
2024-04-23T09:28:04.601Z,5141.25
2024-04-23T09:29:04.606Z,4719.38
2024-04-23T09:30:04.692Z,4314.38
2024-04-23T09:31:04.786Z,4038.75
2024-04-23T09:32:04.709Z,3751.88
2024-04-23T09:33:04.861Z,3296.25
2024-04-23T09:34:04.615Z,2632.50
2024-04-23T09:35:04.728Z,2216.25
2024-04-23T09:36:04.626Z,2025.00
2024-04-23T09:37:04.632Z,1816.88
2024-04-23T09:38:04.698Z,1777.50
2024-04-23T09:39:04.651Z,1766.25
2024-04-23T09:40:04.648Z,1783.13
2024-04-23T09:41:04.730Z,1828.13
2024-04-23T09:42:04.685Z,1822.50
2024-04-23T09:43:04.663Z,1732.50
2024-04-23T09:44:04.727Z,1732.50
2024-04-23T09:45:04.670Z,1715.63
2024-04-23T09:46:06.407Z,1738.13
2024-04-23T09:47:04.802Z,1822.50
2024-04-23T09:48:04.748Z,1912.50
2024-04-23T09:49:04.705Z,1985.63
2024-04-23T09:50:04.764Z,680.63
2024-04-23T09:51:04.710Z,663.75
2024-04-23T09:52:05.746Z,585.00
2024-04-23T09:53:04.862Z,675.00
2024-04-23T09:54:04.728Z,641.25
2024-04-23T09:55:04.769Z,556.88
2024-04-23T09:56:04.773Z,444.38
2024-04-23T09:57:04.740Z,1974.38
2024-04-23T09:58:04.755Z,1923.75
2024-04-23T09:59:04.887Z,1884.38
2024-04-23T10:00:04.752Z,1968.75
2024-04-23T10:01:04.807Z,444.38
2024-04-23T10:02:04.825Z,1923.75
2024-04-23T10:03:04.826Z,1873.13
2024-04-23T10:04:04.955Z,1867.50
2024-04-23T10:05:05.152Z,1845.00
2024-04-23T10:06:04.778Z,1839.38
2024-04-23T10:07:04.781Z,1828.13
2024-04-23T10:08:04.905Z,1918.13
2024-04-23T10:09:04.810Z,1698.75
2024-04-23T10:10:04.804Z,2098.13
2024-04-23T10:11:04.831Z,748.13
2024-04-23T10:12:04.795Z,1738.13
2024-04-23T10:13:04.807Z,444.38
2024-04-23T10:14:04.872Z,658.13
2024-04-23T10:15:04.804Z,2947.50
2024-04-23T10:16:04.800Z,5647.50
2024-04-23T10:17:04.957Z,6980.63
2024-04-23T10:18:04.962Z,2823.75
2024-04-23T10:19:04.885Z,6474.38
2024-04-23T10:20:04.828Z,6277.50
2024-04-23T10:21:04.835Z,1327.50
2024-04-23T10:22:04.839Z,5445.00
2024-04-23T10:23:05.033Z,5293.13
2024-04-23T10:24:04.833Z,5377.50
2024-04-23T10:25:04.863Z,5518.13
2024-04-23T10:26:04.987Z,5698.13
2024-04-23T10:27:04.860Z,6361.88
2024-04-23T10:28:04.873Z,6991.88
2024-04-23T10:29:04.942Z,7312.50
2024-04-23T10:30:04.886Z,7126.88
2024-04-23T10:31:04.891Z,6755.63
2024-04-23T10:32:04.936Z,6435.00
2024-04-23T10:33:05.010Z,6131.25
2024-04-23T10:34:04.902Z,5771.25
2024-04-23T10:35:04.964Z,5563.13
2024-04-23T10:36:04.916Z,5776.88
2024-04-23T10:37:04.930Z,6322.50
2024-04-23T10:38:04.950Z,2958.75
2024-04-23T10:39:04.986Z,1035.00
2024-04-23T10:40:05.063Z,1901.25
2024-04-23T10:41:05.154Z,1738.13
2024-04-23T10:42:04.971Z,7470.00
2024-04-23T10:43:05.020Z,7290.00
2024-04-23T10:44:05.054Z,6581.25
2024-04-23T10:45:05.010Z,6181.88
2024-04-23T10:46:05.048Z,4027.50
2024-04-23T10:47:05.097Z,5956.88
2024-04-23T10:48:05.105Z,6001.88
2024-04-23T10:49:05.041Z,6249.38
2024-04-23T10:50:05.106Z,6541.88
2024-04-23T10:51:05.061Z,6991.88
2024-04-23T10:52:05.082Z,7273.13
2024-04-23T10:53:05.120Z,7290.00
2024-04-23T10:54:06.974Z,7121.25
2024-04-23T10:55:05.119Z,6013.13
2024-04-23T10:56:05.158Z,6176.25
2024-04-23T10:57:05.137Z,911.25
2024-04-23T10:58:05.138Z,6716.25
2024-04-23T10:59:05.466Z,6103.13
2024-04-23T11:00:05.284Z,5670.00
2024-04-23T11:01:05.327Z,5321.25
2024-04-23T11:02:05.211Z,5343.75
2024-04-23T11:03:05.286Z,5349.38
2024-04-23T11:04:05.263Z,5124.38
2024-04-23T11:05:05.363Z,5737.50
2024-04-23T11:06:06.240Z,6125.63
2024-04-23T11:07:05.248Z,6159.38
2024-04-23T11:08:05.409Z,5838.75
2024-04-23T11:09:05.289Z,5371.88
2024-04-23T11:10:05.305Z,3971.25
2024-04-23T11:11:05.462Z,5366.25
2024-04-23T11:12:05.884Z,2390.63
2024-04-23T11:13:05.339Z,5225.63
2024-04-23T11:14:05.389Z,5079.38
2024-04-23T11:15:05.364Z,4950.00
2024-04-23T11:16:05.438Z,4685.63
2024-04-23T11:17:05.476Z,4533.75
2024-04-23T11:18:06.181Z,4415.63
2024-04-23T11:19:05.430Z,4550.63
2024-04-23T11:20:05.458Z,4674.38
2024-04-23T11:21:05.443Z,4972.50
2024-04-23T11:22:05.469Z,4584.38
2024-04-23T11:23:05.589Z,860.63
2024-04-23T11:24:06.237Z,5096.25
2024-04-23T11:25:05.509Z,500.63
2024-04-23T11:26:05.525Z,466.88
2024-04-23T11:27:05.575Z,601.88
2024-04-23T11:28:05.683Z,5158.13
2024-04-23T11:29:05.592Z,5445.00
2024-04-23T11:30:07.013Z,5163.75
2024-04-23T11:31:05.562Z,4978.13
2024-04-23T11:32:05.634Z,4871.25
2024-04-23T11:33:05.661Z,4848.75
2024-04-23T11:34:05.697Z,4983.75
2024-04-23T11:35:05.686Z,5236.88
2024-04-23T11:36:06.980Z,5428.13
2024-04-23T11:37:05.652Z,5647.50
2024-04-23T11:38:05.665Z,5664.38
2024-04-23T11:39:05.652Z,1175.63
2024-04-23T11:40:05.670Z,1035.00
2024-04-23T11:41:05.738Z,928.13
2024-04-23T11:42:07.670Z,1035.00
2024-04-23T11:43:05.693Z,781.88
2024-04-23T11:44:05.739Z,911.25
2024-04-23T11:45:05.798Z,849.38
2024-04-23T11:46:05.736Z,793.13
2024-04-23T11:47:05.808Z,703.13
2024-04-23T11:48:05.828Z,641.25
2024-04-23T11:49:05.758Z,613.13
2024-04-23T11:50:05.850Z,618.75
2024-04-23T11:51:05.771Z,517.50
2024-04-23T11:52:08.252Z,500.63
2024-04-23T11:53:05.853Z,483.75
2024-04-23T11:54:05.784Z,450.00
2024-04-23T11:55:05.800Z,421.88
2024-04-23T11:56:05.931Z,382.50
2024-04-23T11:57:05.787Z,337.50
2024-04-23T11:58:05.792Z,315.00
2024-04-23T11:59:05.883Z,309.38
2024-04-23T12:00:05.809Z,309.38
2024-04-23T12:01:05.819Z,315.00
2024-04-23T12:02:05.957Z,326.25
2024-04-23T12:03:05.822Z,343.13
2024-04-23T12:04:05.842Z,382.50
2024-04-23T12:05:06.291Z,410.63
2024-04-23T12:06:05.947Z,421.88
2024-04-23T12:07:05.821Z,433.13
2024-04-23T12:08:05.994Z,466.88
2024-04-23T12:09:05.846Z,511.88
2024-04-23T12:10:06.216Z,540.00
2024-04-23T12:11:05.972Z,562.50
2024-04-23T12:12:05.831Z,585.00
2024-04-23T12:13:05.856Z,607.50
2024-04-23T12:14:05.864Z,573.75
2024-04-23T12:15:05.840Z,534.38
2024-04-23T12:16:05.865Z,495.00
2024-04-23T12:17:05.908Z,483.75
2024-04-23T12:18:05.873Z,483.75
2024-04-23T12:19:05.837Z,489.38
2024-04-23T12:20:05.903Z,455.63
2024-04-23T12:21:05.847Z,450.00
2024-04-23T12:22:05.858Z,495.00
2024-04-23T12:23:05.947Z,556.88
2024-04-23T12:24:05.839Z,900.00
2024-04-23T12:25:05.872Z,855.00
2024-04-23T12:26:05.881Z,973.13
2024-04-23T12:27:05.847Z,635.63
2024-04-23T12:28:05.858Z,585.00
2024-04-23T12:29:05.888Z,562.50
2024-04-23T12:30:05.862Z,585.00
2024-04-23T12:31:05.884Z,596.25
2024-04-23T12:32:05.917Z,579.38
2024-04-23T12:33:05.885Z,523.13
2024-04-23T12:34:05.850Z,472.50
2024-04-23T12:35:05.902Z,455.63
2024-04-23T12:36:05.849Z,438.75
2024-04-23T12:37:05.852Z,421.88
2024-04-23T12:38:05.884Z,393.75
2024-04-23T12:39:05.843Z,382.50
2024-04-23T12:40:05.850Z,416.25
2024-04-23T12:41:05.908Z,556.88